createdAt,value
2022-12-04T00:01:18.759Z,54.67
2022-12-04T00:03:46.174Z,60.30
2022-12-04T00:06:19.209Z,55.72
2022-12-04T00:08:47.741Z,57.83
2022-12-04T00:11:19.049Z,54.05
2022-12-04T00:13:46.777Z,56.67
2022-12-04T00:16:17.588Z,55.33
2022-12-04T00:18:45.049Z,54.65
2022-12-04T00:21:14.166Z,52.95
2022-12-04T00:23:41.945Z,56.78
2022-12-04T00:26:17.994Z,57.85
2022-12-04T00:28:45.970Z,53.08
2022-12-04T00:31:16.662Z,57.22
2022-12-04T00:33:44.058Z,57.25
2022-12-04T00:36:13.816Z,58.33
2022-12-04T00:38:42.918Z,57.35
2022-12-04T00:41:16.122Z,58.45
2022-12-04T00:43:43.785Z,56.55
2022-12-04T00:46:11.024Z,55.75
2022-12-04T00:48:38.503Z,58.42
2022-12-04T00:51:07.552Z,54.45
2022-12-04T00:53:34.667Z,57.10
2022-12-04T00:56:10.851Z,54.78
2022-12-04T00:58:38.146Z,54.65
2022-12-04T01:01:14.554Z,55.80
2022-12-04T01:03:42.497Z,54.58
2022-12-04T01:06:20.970Z,54.83
2022-12-04T01:08:50.219Z,52.15
2022-12-04T01:11:18.157Z,53.92
2022-12-04T01:13:45.918Z,53.20
2022-12-04T01:16:23.595Z,54.45
2022-12-04T01:18:51.732Z,53.15
2022-12-04T01:21:19.212Z,55.28
2022-12-04T01:23:46.369Z,57.65
2022-12-04T01:26:13.839Z,56.13
2022-12-04T01:28:41.872Z,55.80
2022-12-04T01:31:17.038Z,52.80
2022-12-04T01:33:44.712Z,53.67
2022-12-04T01:36:16.171Z,56.47
2022-12-04T01:38:43.363Z,54.35
2022-12-04T01:41:12.430Z,54.53
2022-12-04T01:43:40.914Z,56.45
2022-12-04T01:46:08.886Z,55.13
2022-12-04T01:48:44.790Z,55.28
2022-12-04T01:51:19.034Z,56.45
2022-12-04T01:53:59.493Z,56.95
2022-12-04T01:56:32.601Z,58.47
2022-12-04T01:59:02.138Z,57.30
2022-12-04T02:01:34.425Z,55.58
2022-12-04T02:04:04.326Z,56.33
2022-12-04T02:06:31.443Z,56.60
2022-12-04T02:08:58.623Z,55.80
2022-12-04T02:11:31.158Z,55.80
2022-12-04T02:14:15.857Z,53.40
2022-12-04T02:17:04.325Z,51.78
2022-12-04T02:20:04.438Z,51.60
2022-12-04T02:23:16.557Z,57.47
2022-12-04T02:26:08.428Z,54.30
2022-12-04T02:28:57.962Z,52.05
2022-12-04T02:31:33.987Z,57.72
2022-12-04T02:34:24.937Z,56.75
2022-12-04T02:37:04.387Z,57.22
2022-12-04T02:39:44.720Z,55.67
2022-12-04T02:42:17.022Z,51.00
2022-12-04T02:44:57.594Z,52.95
2022-12-04T02:47:26.327Z,52.70
2022-12-04T02:49:59.194Z,54.67
2022-12-04T02:52:38.870Z,54.22
2022-12-04T02:55:12.420Z,53.20
2022-12-04T02:57:44.140Z,56.63
2022-12-04T03:00:12.174Z,54.00
2022-12-04T03:02:54.423Z,56.08
2022-12-04T03:05:30.317Z,54.97
2022-12-04T03:08:06.797Z,57.75
2022-12-04T03:10:43.990Z,54.40
2022-12-04T03:13:15.940Z,56.60
2022-12-04T03:15:54.363Z,55.72
2022-12-04T03:18:32.243Z,53.53
2022-12-04T03:21:08.425Z,56.47
2022-12-04T03:23:44.660Z,58.92
2022-12-04T03:26:25.957Z,54.38
2022-12-04T03:29:10.844Z,57.10
2022-12-04T03:31:44.420Z,56.47
2022-12-04T03:34:15.793Z,57.07
2022-12-04T03:36:56.324Z,55.53
2022-12-04T03:39:30.695Z,55.53
2022-12-04T03:42:22.320Z,54.25
2022-12-04T03:45:14.861Z,53.97
2022-12-04T03:47:52.109Z,56.28
2022-12-04T03:50:28.811Z,56.38
2022-12-04T03:53:08.724Z,59.63
2022-12-04T03:55:52.059Z,59.70
2022-12-04T03:58:25.195Z,55.20
2022-12-04T04:00:54.818Z,60.08
2022-12-04T04:03:44.871Z,54.22
2022-12-04T04:06:18.530Z,55.75
2022-12-04T04:08:49.929Z,56.53
2022-12-04T04:11:31.822Z,56.30
2022-12-04T04:14:30.440Z,54.35
2022-12-04T04:17:24.501Z,55.22
2022-12-04T04:20:21.157Z,56.58
2022-12-04T04:23:09.587Z,54.92
2022-12-04T04:25:40.543Z,57.45
2022-12-04T04:28:41.012Z,56.42
2022-12-04T04:31:10.810Z,54.72
2022-12-04T04:33:59.797Z,55.08
2022-12-04T04:36:49.482Z,53.90
2022-12-04T04:39:25.611Z,52.30
2022-12-04T04:42:02.448Z,55.97
2022-12-04T04:45:04.883Z,55.20
2022-12-04T04:47:41.115Z,56.70
2022-12-04T04:50:11.576Z,57.65
2022-12-04T04:52:42.356Z,57.75
2022-12-04T04:55:10.728Z,60.90
2022-12-04T04:57:38.036Z,65.63
2022-12-04T05:00:11.660Z,68.57
2022-12-04T05:02:38.892Z,69.00
2022-12-04T05:05:07.376Z,70.43
2022-12-04T05:07:34.556Z,70.30
2022-12-04T05:10:01.951Z,62.80
2022-12-04T05:12:29.091Z,61.17
2022-12-04T05:14:56.198Z,59.13
2022-12-04T05:17:23.595Z,62.13
2022-12-04T05:19:57.365Z,59.22
2022-12-04T05:22:31.770Z,59.05
2022-12-04T05:24:59.551Z,61.22
2022-12-04T05:27:27.587Z,58.85
2022-12-04T05:29:56.331Z,62.28
2022-12-04T05:32:25.334Z,58.17
2022-12-04T05:34:53.818Z,58.90
2022-12-04T05:37:21.733Z,60.10
2022-12-04T05:39:49.041Z,57.47
2022-12-04T05:42:16.443Z,55.17
2022-12-04T05:44:43.612Z,52.78
2022-12-04T05:47:10.920Z,52.95
2022-12-04T05:49:38.082Z,54.00
2022-12-04T05:52:05.898Z,56.22
2022-12-04T05:54:33.062Z,54.25
2022-12-04T05:57:00.233Z,51.13
2022-12-04T05:59:27.353Z,53.30
2022-12-04T06:01:54.490Z,53.05
2022-12-04T06:04:21.643Z,52.08
2022-12-04T06:06:48.914Z,55.60
2022-12-04T06:09:16.071Z,58.00
2022-12-04T06:11:43.584Z,56.55
2022-12-04T06:14:13.942Z,53.28
2022-12-04T06:16:43.528Z,53.50
2022-12-04T06:19:21.286Z,55.42
2022-12-04T06:21:51.162Z,55.38
2022-12-04T06:24:21.147Z,55.10
2022-12-04T06:27:18.852Z,54.63
2022-12-04T06:29:36.168Z,55.38
2022-12-04T06:32:03.682Z,57.03
2022-12-04T06:34:31.167Z,60.83
2022-12-04T06:36:58.403Z,58.97
2022-12-04T06:39:25.575Z,62.63
2022-12-04T06:41:52.994Z,61.60
2022-12-04T06:44:20.083Z,62.25
2022-12-04T06:46:50.034Z,59.38
2022-12-04T06:49:17.511Z,59.25
2022-12-04T06:51:44.605Z,61.38
2022-12-04T06:54:12.276Z,61.67
2022-12-04T06:56:39.362Z,57.85
2022-12-04T06:59:06.516Z,60.42
2022-12-04T07:01:34.933Z,56.53
2022-12-04T07:04:04.462Z,58.28
2022-12-04T07:06:41.763Z,59.78
2022-12-04T07:09:12.189Z,57.15
2022-12-04T07:11:40.957Z,58.97
2022-12-04T07:14:08.247Z,59.67
2022-12-04T07:16:40.362Z,58.45
2022-12-04T07:19:09.470Z,56.88
2022-12-04T07:21:36.527Z,61.22
2022-12-04T07:24:04.158Z,59.95
2022-12-04T07:26:31.803Z,58.13
2022-12-04T07:28:59.698Z,59.08
2022-12-04T07:31:28.906Z,57.28
2022-12-04T07:33:57.289Z,61.38
2022-12-04T07:36:25.609Z,65.00
2022-12-04T07:38:54.605Z,58.20
2022-12-04T07:41:21.696Z,58.88
2022-12-04T07:43:48.806Z,54.90
2022-12-04T07:46:21.867Z,58.83
2022-12-04T07:48:49.102Z,57.13
2022-12-04T07:51:22.855Z,57.38
2022-12-04T07:53:51.649Z,58.20
2022-12-04T07:56:19.434Z,59.25
2022-12-04T07:58:47.291Z,61.00
2022-12-04T08:01:20.388Z,60.60
2022-12-04T08:03:50.332Z,63.08
2022-12-04T08:06:22.049Z,64.20
2022-12-04T08:08:49.854Z,65.38
2022-12-04T08:11:20.103Z,60.42
2022-12-04T08:13:47.442Z,60.53
2022-12-04T08:16:15.690Z,62.72
2022-12-04T08:18:46.951Z,55.70
2022-12-04T08:21:17.147Z,60.50
2022-12-04T08:23:45.084Z,61.63
2022-12-04T08:26:12.919Z,60.60
2022-12-04T08:28:41.406Z,59.42
2022-12-04T08:31:20.995Z,57.33
2022-12-04T08:33:49.591Z,55.75
2022-12-04T08:36:19.484Z,57.90
2022-12-04T08:38:47.352Z,57.53
2022-12-04T08:41:16.661Z,58.55
2022-12-04T08:43:43.951Z,57.95
2022-12-04T08:46:15.701Z,58.22
2022-12-04T08:48:44.697Z,57.33
2022-12-04T08:51:20.213Z,57.20
2022-12-04T08:53:47.632Z,56.45
2022-12-04T08:56:15.123Z,69.03
2022-12-04T08:58:42.268Z,64.85
2022-12-04T09:01:14.527Z,64.43
2022-12-04T09:03:42.477Z,58.50
2022-12-04T09:06:11.624Z,55.15
2022-12-04T09:08:39.122Z,58.13
2022-12-04T09:11:17.633Z,60.55
2022-12-04T09:13:45.362Z,57.90
2022-12-04T09:16:16.265Z,62.10
2022-12-04T09:18:44.054Z,56.70
2022-12-04T09:21:13.562Z,58.92
2022-12-04T09:23:41.335Z,55.58
2022-12-04T09:26:19.137Z,56.30
2022-12-04T09:28:47.540Z,57.97
2022-12-04T09:31:14.948Z,54.97
2022-12-04T09:33:42.120Z,58.90
2022-12-04T09:36:16.067Z,53.90
2022-12-04T09:38:48.977Z,54.58
2022-12-04T09:41:24.992Z,57.03
2022-12-04T09:43:58.144Z,54.20
2022-12-04T09:46:51.450Z,54.78
2022-12-04T09:49:45.864Z,53.70
2022-12-04T09:52:34.422Z,55.07
2022-12-04T09:55:04.744Z,53.08
2022-12-04T09:57:43.559Z,53.35
2022-12-04T10:00:16.968Z,53.03
2022-12-04T10:02:57.937Z,57.90
2022-12-04T10:05:54.469Z,54.60
2022-12-04T10:08:40.597Z,56.97
2022-12-04T10:11:31.966Z,52.50
2022-12-04T10:14:42.824Z,54.08
2022-12-04T10:17:12.899Z,53.00
2022-12-04T10:20:12.653Z,54.20
2022-12-04T10:23:13.707Z,50.25
2022-12-04T10:25:43.119Z,52.85
2022-12-04T10:28:22.952Z,53.78
2022-12-04T10:30:52.940Z,53.70
2022-12-04T10:33:30.696Z,52.25
2022-12-04T10:35:58.056Z,52.47
2022-12-04T10:38:51.640Z,50.75
2022-12-04T10:41:42.822Z,50.50
2022-12-04T10:44:18.350Z,51.90
2022-12-04T10:46:46.737Z,51.35
2022-12-04T10:49:22.939Z,49.35
2022-12-04T10:51:50.145Z,52.65
2022-12-04T10:54:22.273Z,49.05
2022-12-04T10:57:06.826Z,51.72
2022-12-04T10:59:35.125Z,48.47
2022-12-04T11:02:17.562Z,49.60
2022-12-04T11:05:01.920Z,53.55
2022-12-04T11:07:45.568Z,52.03
2022-12-04T11:10:38.596Z,52.22
2022-12-04T11:13:11.548Z,51.38
2022-12-04T11:15:53.153Z,50.83
2022-12-04T11:18:23.533Z,46.80
2022-12-04T11:20:54.489Z,52.50
2022-12-04T11:23:22.466Z,52.17
2022-12-04T11:25:53.735Z,50.13
2022-12-04T11:28:41.031Z,47.28
2022-12-04T11:31:11.421Z,46.97
2022-12-04T11:33:47.288Z,44.90
2022-12-04T11:36:20.644Z,44.53
2022-12-04T11:38:48.528Z,49.30
2022-12-04T11:41:30.777Z,47.67
2022-12-04T11:44:00.562Z,45.28
2022-12-04T11:46:34.259Z,46.90
2022-12-04T11:49:03.507Z,49.83
2022-12-04T11:51:55.959Z,47.55
2022-12-04T11:54:41.799Z,52.35
2022-12-04T11:57:42.201Z,47.55
2022-12-04T12:00:28.898Z,44.17
2022-12-04T12:03:21.664Z,48.45
2022-12-04T12:06:00.930Z,47.35
2022-12-04T12:08:56.737Z,49.45
2022-12-04T12:11:32.717Z,47.67
2022-12-04T12:14:10.269Z,47.30
2022-12-04T12:17:04.176Z,87.10
2022-12-04T12:20:12.060Z,91.38
2022-12-04T12:22:53.934Z,65.53
2022-12-04T12:25:52.138Z,57.67
2022-12-04T12:28:53.366Z,56.70
2022-12-04T12:31:36.011Z,48.97
2022-12-04T12:34:10.273Z,47.58
2022-12-04T12:36:44.135Z,49.30
2022-12-04T12:39:20.992Z,51.00
2022-12-04T12:41:52.729Z,54.03
2022-12-04T12:44:46.201Z,52.65
2022-12-04T12:47:19.804Z,55.08
2022-12-04T12:49:49.787Z,58.37
2022-12-04T12:52:44.166Z,56.08
2022-12-04T12:55:37.080Z,52.97
2022-12-04T12:58:12.304Z,51.80
2022-12-04T13:01:05.224Z,48.50
2022-12-04T13:03:51.200Z,52.75
2022-12-04T13:06:31.677Z,50.65
2022-12-04T13:09:08.338Z,54.58
2022-12-04T13:11:37.207Z,55.22
2022-12-04T13:14:05.270Z,56.40
2022-12-04T13:16:38.098Z,52.28
2022-12-04T13:19:24.190Z,52.17
2022-12-04T13:22:12.295Z,52.10
2022-12-04T13:25:08.441Z,51.08
2022-12-04T13:28:03.315Z,51.08
2022-12-04T13:31:04.175Z,49.13
2022-12-04T13:33:34.168Z,47.05
2022-12-04T13:36:16.371Z,50.30
2022-12-04T13:39:16.270Z,52.17
2022-12-04T13:41:43.596Z,49.08
2022-12-04T13:44:22.352Z,48.28
2022-12-04T13:47:01.031Z,50.47
2022-12-04T13:49:37.181Z,50.22
2022-12-04T13:52:20.193Z,51.40
2022-12-04T13:54:58.625Z,50.33
2022-12-04T13:57:28.384Z,47.92
2022-12-04T14:00:05.781Z,53.72
2022-12-04T14:02:44.493Z,52.28
2022-12-04T14:05:12.512Z,57.63
2022-12-04T14:08:07.587Z,53.15
2022-12-04T14:10:38.112Z,53.85
2022-12-04T14:13:18.124Z,56.35
2022-12-04T14:15:46.067Z,53.03
2022-12-04T14:18:13.445Z,55.13
2022-12-04T14:20:44.590Z,52.25
2022-12-04T14:23:26.401Z,55.95
2022-12-04T14:25:58.922Z,50.80
2022-12-04T14:28:42.178Z,47.15
2022-12-04T14:31:23.306Z,50.22
2022-12-04T14:33:56.815Z,51.53
2022-12-04T14:36:35.208Z,51.80
2022-12-04T14:39:17.243Z,50.55
2022-12-04T14:41:45.684Z,51.65
2022-12-04T14:44:29.249Z,54.63
2022-12-04T14:47:25.477Z,53.05
2022-12-04T14:50:40.061Z,53.53
2022-12-04T14:53:19.512Z,51.47
2022-12-04T14:56:07.446Z,51.47
2022-12-04T14:58:38.963Z,51.17
2022-12-04T15:01:23.955Z,52.38
2022-12-04T15:03:58.131Z,51.25
2022-12-04T15:06:29.733Z,55.58
2022-12-04T15:09:17.874Z,54.28
2022-12-04T15:12:15.815Z,52.00
2022-12-04T15:14:48.183Z,52.10
2022-12-04T15:17:17.543Z,52.28
2022-12-04T15:19:45.826Z,51.83
2022-12-04T15:22:22.623Z,50.38
2022-12-04T15:24:51.736Z,54.03
2022-12-04T15:27:27.432Z,52.55
2022-12-04T15:30:01.102Z,53.17
2022-12-04T15:32:28.872Z,51.45
2022-12-04T15:35:01.723Z,50.88
2022-12-04T15:37:32.689Z,53.03
2022-12-04T15:40:00.542Z,48.25
2022-12-04T15:42:29.961Z,48.25
2022-12-04T15:45:03.783Z,50.30
2022-12-04T15:47:41.039Z,50.63
2022-12-04T15:50:15.786Z,51.58
2022-12-04T15:53:01.248Z,51.08
2022-12-04T15:55:31.501Z,55.08
2022-12-04T15:58:09.162Z,52.75
2022-12-04T16:00:39.316Z,83.22
2022-12-04T16:03:22.091Z,73.95
2022-12-04T16:05:49.366Z,70.50
2022-12-04T16:08:34.095Z,66.40
2022-12-04T16:11:07.921Z,62.15
2022-12-04T16:13:37.815Z,55.85
2022-12-04T16:16:12.639Z,57.15
2022-12-04T16:18:40.396Z,57.92
2022-12-04T16:21:18.541Z,58.15
2022-12-04T16:23:46.418Z,57.22
2022-12-04T16:26:15.055Z,60.75
2022-12-04T16:28:42.462Z,57.60
2022-12-04T16:31:12.773Z,63.67
2022-12-04T16:33:40.579Z,66.00
2022-12-04T16:36:10.285Z,67.38
2022-12-04T16:38:37.777Z,62.08
2022-12-04T16:41:05.698Z,70.07
2022-12-04T16:43:32.887Z,73.88
2022-12-04T16:46:01.604Z,72.88
2022-12-04T16:48:29.796Z,72.75
2022-12-04T16:50:56.985Z,75.47
2022-12-04T16:53:24.157Z,70.18
2022-12-04T16:55:52.801Z,72.50
2022-12-04T16:58:21.001Z,70.18
2022-12-04T17:00:56.186Z,72.15
2022-12-04T17:03:33.934Z,72.13
2022-12-04T17:06:01.599Z,74.38
2022-12-04T17:08:28.752Z,73.00
2022-12-04T17:10:55.920Z,76.63
2022-12-04T17:13:23.412Z,72.38
2022-12-04T17:15:50.678Z,68.55
2022-12-04T17:18:21.099Z,74.13
2022-12-04T17:20:49.146Z,78.95
2022-12-04T17:23:16.494Z,92.93
2022-12-04T17:25:43.695Z,88.53
2022-12-04T17:28:11.907Z,79.78
2022-12-04T17:30:38.991Z,78.88
2022-12-04T17:33:06.108Z,97.28
2022-12-04T17:35:34.506Z,71.07
2022-12-04T17:38:05.958Z,71.40
2022-12-04T17:40:33.762Z,66.80
2022-12-04T17:43:01.042Z,65.50
2022-12-04T17:45:28.762Z,64.55
2022-12-04T17:47:55.974Z,60.70
2022-12-04T17:50:23.221Z,67.25
2022-12-04T17:52:50.552Z,63.72
2022-12-04T17:55:17.872Z,65.22
2022-12-04T17:57:45.096Z,62.08
2022-12-04T18:00:12.598Z,71.15
2022-12-04T18:02:41.782Z,71.25
2022-12-04T18:05:10.002Z,70.95
2022-12-04T18:07:37.266Z,72.65
2022-12-04T18:10:05.100Z,78.38
2022-12-04T18:12:32.319Z,70.25
2022-12-04T18:15:00.013Z,67.97
2022-12-04T18:17:27.512Z,67.32
2022-12-04T18:20:01.068Z,62.85
2022-12-04T18:22:29.888Z,73.50
2022-12-04T18:24:56.989Z,64.03
2022-12-04T18:27:24.742Z,66.47
2022-12-04T18:29:51.879Z,66.80
2022-12-04T18:32:18.982Z,64.40
2022-12-04T18:34:46.129Z,67.85
2022-12-04T18:37:13.242Z,69.57
2022-12-04T18:39:40.395Z,64.35
2022-12-04T18:42:07.873Z,62.33
2022-12-04T18:44:35.006Z,65.32
2022-12-04T18:47:02.268Z,61.13
2022-12-04T18:49:29.388Z,61.25
2022-12-04T18:51:59.867Z,59.15
2022-12-04T18:54:26.992Z,59.58
2022-12-04T18:56:54.104Z,57.92
2022-12-04T18:59:24.014Z,57.78
2022-12-04T19:01:51.492Z,58.33
2022-12-04T19:04:20.482Z,52.47
2022-12-04T19:06:52.211Z,55.22
2022-12-04T19:09:40.700Z,59.20
2022-12-04T19:12:11.779Z,54.67
2022-12-04T19:14:39.915Z,57.25
2022-12-04T19:17:07.312Z,53.38
2022-12-04T19:19:34.540Z,53.80
2022-12-04T19:22:02.266Z,55.75
2022-12-04T19:24:29.445Z,58.20
2022-12-04T19:26:56.790Z,53.20
2022-12-04T19:29:23.933Z,54.40
2022-12-04T19:31:55.987Z,54.28
2022-12-04T19:34:26.477Z,50.00
2022-12-04T19:36:54.902Z,55.63
2022-12-04T19:39:22.544Z,52.97
2022-12-04T19:41:49.723Z,53.72
2022-12-04T19:44:47.421Z,52.25
2022-12-04T19:47:04.168Z,53.15
2022-12-04T19:49:31.486Z,52.75
2022-12-04T19:51:58.634Z,50.85
2022-12-04T19:54:26.150Z,52.58
2022-12-04T19:56:53.321Z,52.28
2022-12-04T19:59:20.873Z,51.30
2022-12-04T20:01:48.366Z,53.97
2022-12-04T20:04:15.758Z,56.90
2022-12-04T20:06:46.112Z,53.50
2022-12-04T20:09:21.980Z,55.67
2022-12-04T20:11:49.620Z,50.55
2022-12-04T20:14:17.525Z,54.00
2022-12-04T20:16:44.990Z,56.40
2022-12-04T20:19:18.080Z,49.90
2022-12-04T20:21:46.584Z,51.53
2022-12-04T20:24:16.567Z,52.42
2022-12-04T20:26:45.577Z,52.08
2022-12-04T20:29:14.760Z,55.35
2022-12-04T20:31:44.639Z,54.38
2022-12-04T20:34:18.813Z,54.22
2022-12-04T20:36:48.284Z,53.65
2022-12-04T20:39:19.504Z,54.25
2022-12-04T20:41:46.943Z,48.28
2022-12-04T20:44:16.771Z,54.10
2022-12-04T20:46:44.733Z,54.70
2022-12-04T20:49:20.607Z,55.25
2022-12-04T20:51:49.033Z,53.63
2022-12-04T20:54:18.768Z,53.30
2022-12-04T20:56:48.813Z,57.97
2022-12-04T20:59:18.224Z,58.10
2022-12-04T21:01:45.959Z,57.25
2022-12-04T21:04:13.488Z,59.65
2022-12-04T21:06:42.037Z,56.90
2022-12-04T21:09:16.085Z,55.22
2022-12-04T21:11:49.362Z,57.42
2022-12-04T21:14:43.908Z,53.40
2022-12-04T21:17:16.785Z,53.70
2022-12-04T21:19:47.678Z,56.65
2022-12-04T21:22:16.040Z,59.00
2022-12-04T21:24:43.244Z,54.42
2022-12-04T21:27:15.685Z,55.83
2022-12-04T21:29:46.351Z,56.60
2022-12-04T21:32:13.607Z,54.05
2022-12-04T21:34:40.646Z,58.58
2022-12-04T21:37:07.994Z,56.88
2022-12-04T21:39:36.152Z,55.65
2022-12-04T21:42:22.301Z,58.55
2022-12-04T21:44:49.467Z,59.20
2022-12-04T21:47:16.689Z,62.95
2022-12-04T21:49:43.871Z,58.00
2022-12-04T21:52:11.033Z,61.42
2022-12-04T21:54:38.257Z,59.00
2022-12-04T21:57:05.373Z,56.90
2022-12-04T21:59:32.530Z,58.88
2022-12-04T22:01:59.783Z,59.38
2022-12-04T22:04:27.050Z,60.20
2022-12-04T22:06:54.182Z,64.28
2022-12-04T22:09:21.378Z,63.92
2022-12-04T22:11:48.562Z,62.35
2022-12-04T22:14:15.891Z,67.25
2022-12-04T22:16:43.653Z,62.28
2022-12-04T22:19:13.930Z,61.95
2022-12-04T22:21:41.527Z,66.78
2022-12-04T22:24:10.665Z,69.10
2022-12-04T22:26:38.754Z,58.75
2022-12-04T22:29:27.115Z,62.13
2022-12-04T22:31:53.534Z,58.83
2022-12-04T22:34:20.676Z,59.70
2022-12-04T22:36:49.983Z,58.42
2022-12-04T22:39:17.235Z,58.08
2022-12-04T22:41:44.380Z,57.60
2022-12-04T22:44:11.524Z,61.30
2022-12-04T22:46:38.717Z,56.50
2022-12-04T22:49:05.857Z,61.35
2022-12-04T22:51:33.005Z,57.22
2022-12-04T22:54:00.137Z,56.78
2022-12-04T22:56:30.403Z,53.97
2022-12-04T22:58:58.574Z,56.72
2022-12-04T23:01:28.407Z,53.72
2022-12-04T23:03:56.188Z,54.70
2022-12-04T23:06:26.191Z,50.30
2022-12-04T23:09:00.807Z,52.13
2022-12-04T23:11:28.748Z,51.83
2022-12-04T23:14:01.080Z,50.95
2022-12-04T23:16:30.439Z,50.90
2022-12-04T23:18:59.478Z,52.42
2022-12-04T23:21:27.889Z,50.47
2022-12-04T23:23:56.082Z,48.88
2022-12-04T23:26:27.122Z,53.72
2022-12-04T23:28:55.607Z,53.30
2022-12-04T23:31:23.460Z,53.47
2022-12-04T23:33:51.104Z,52.13
2022-12-04T23:36:18.379Z,52.75
2022-12-04T23:38:45.660Z,54.28
2022-12-04T23:41:21.300Z,50.97
2022-12-04T23:43:49.385Z,50.42
2022-12-04T23:46:20.683Z,53.33
2022-12-04T23:48:48.554Z,48.15
2022-12-04T23:51:17.718Z,47.45
2022-12-04T23:53:45.218Z,49.78
2022-12-04T23:56:18.038Z,50.67
2022-12-04T23:58:47.180Z,47.53
